Time;durP1;ratioP1;P1;durP2;ratioP2;P2;SDS_P1;SDS_P2;PMS_P1;PMS_P2;Temp;Humidity;BMP_temperature;BMP_pressure;BME280_temperature;BME280_humidity;BME280_pressure;Samples;Min_cycle;Max_cycle;Signal;HPM_P1;HPM_P2
2022/06/12 00:01:07;;;;;;;5.25;2.38;;;;;;;;;;5076622;28;20040;-68
2022/06/12 00:03:33;;;;;;;4.18;2.08;;;;;;;;;;5076457;28;20121;-68
2022/06/12 00:06:00;;;;;;;4.63;2.17;;;;;;;;;;5076419;28;20051;-68
2022/06/12 00:08:28;;;;;;;3.53;2.17;;;;;;;;;;5076384;28;20082;-67
2022/06/12 00:10:55;;;;;;;3.67;2.50;;;;;;;;;;5076513;28;20045;-68
2022/06/12 00:13:25;;;;;;;5.82;2.60;;;;;;;;;;5076472;28;20032;-68
2022/06/12 00:15:51;;;;;;;4.93;2.80;;;;;;;;;;5076130;28;20064;-68
2022/06/12 00:18:17;;;;;;;9.35;2.40;;;;;;;;;;5076356;28;20393;-68
2022/06/12 00:20:43;;;;;;;7.07;2.92;;;;;;;;;;5076329;28;20435;-68
2022/06/12 00:23:12;;;;;;;5.95;2.42;;;;;;;;;;5076173;28;20037;-68
2022/06/12 00:25:38;;;;;;;10.48;2.85;;;;;;;;;;5075907;28;20078;-68
2022/06/12 00:28:05;;;;;;;5.68;3.05;;;;;;;;;;5076074;28;20071;-68
2022/06/12 00:30:31;;;;;;;7.15;3.13;;;;;;;;;;5075898;28;20454;-68
2022/06/12 00:32:57;;;;;;;5.38;2.53;;;;;;;;;;5075686;28;20143;-68
2022/06/12 00:35:26;;;;;;;7.60;2.70;;;;;;;;;;5075953;28;20041;-68
2022/06/12 00:37:52;;;;;;;5.38;2.80;;;;;;;;;;5076089;28;20389;-68
2022/06/12 00:40:19;;;;;;;5.72;2.60;;;;;;;;;;5075932;28;20043;-68
2022/06/12 00:42:48;;;;;;;4.88;2.95;;;;;;;;;;5075681;28;20036;-67
2022/06/12 00:45:26;;;;;;;4.78;2.50;;;;;;;;;;5075582;28;20046;-68
2022/06/12 00:47:55;;;;;;;5.28;2.30;;;;;;;;;;5075588;28;20051;-68
2022/06/12 00:50:21;;;;;;;4.28;2.30;;;;;;;;;;5075902;28;20052;-68
2022/06/12 00:52:49;;;;;;;4.25;2.60;;;;;;;;;;5075253;28;20032;-68
2022/06/12 00:55:24;;;;;;;5.05;2.45;;;;;;;;;;5075913;28;20385;-68
2022/06/12 00:57:52;;;;;;;4.07;2.35;;;;;;;;;;5074115;28;20762;-69
2022/06/12 01:00:18;;;;;;;3.55;2.40;;;;;;;;;;5072637;28;20131;-68
2022/06/12 01:02:44;;;;;;;5.28;2.30;;;;;;;;;;5072660;28;20037;-68
2022/06/12 01:07:59;;;;;;;5.95;2.47;;;;;;;;;;5075175;28;20102;-68
2022/06/12 01:10:28;;;;;;;5.53;2.15;;;;;;;;;;5074914;28;20473;-68
2022/06/12 01:13:02;;;;;;;2.95;1.90;;;;;;;;;;5074621;28;20407;-68
2022/06/12 01:15:31;;;;;;;4.20;1.95;;;;;;;;;;5074895;28;20397;-68
2022/06/12 01:17:58;;;;;;;5.70;2.10;;;;;;;;;;5074922;28;20052;-68
2022/06/12 01:20:27;;;;;;;2.83;1.60;;;;;;;;;;5074723;28;20056;-68
2022/06/12 01:23:11;;;;;;;8.15;1.90;;;;;;;;;;5074504;28;20539;-68
2022/06/12 01:25:56;;;;;;;3.97;1.80;;;;;;;;;;5074933;28;20032;-68
2022/06/12 01:28:45;;;;;;;3.25;1.60;;;;;;;;;;5074805;28;20043;-68
2022/06/12 01:31:23;;;;;;;2.95;1.63;;;;;;;;;;5074793;28;20040;-68
2022/06/12 01:33:52;;;;;;;2.80;1.70;;;;;;;;;;5074460;28;20029;-68
2022/06/12 01:36:22;;;;;;;3.72;1.60;;;;;;;;;;5074417;28;20033;-68
2022/06/12 01:38:57;;;;;;;8.55;2.13;;;;;;;;;;5074645;28;20064;-68
2022/06/12 01:41:40;;;;;;;3.95;1.70;;;;;;;;;;5074527;28;20032;-68
2022/06/12 01:44:11;;;;;;;5.18;1.58;;;;;;;;;;5074210;28;20028;-68
2022/06/12 01:46:45;;;;;;;2.10;1.67;;;;;;;;;;5074301;28;20040;-68
2022/06/12 01:49:23;;;;;;;4.82;1.85;;;;;;;;;;5074080;28;20050;-68
2022/06/12 01:51:54;;;;;;;2.95;1.73;;;;;;;;;;5074323;28;20114;-68
2022/06/12 01:54:30;;;;;;;3.60;1.70;;;;;;;;;;5074303;28;20532;-68
2022/06/12 01:57:00;;;;;;;3.50;1.60;;;;;;;;;;5074166;28;20032;-68
2022/06/12 01:59:29;;;;;;;1.95;1.70;;;;;;;;;;5073617;28;20036;-66
2022/06/12 02:01:55;;;;;;;3.05;1.67;;;;;;;;;;5074068;28;20590;-68
2022/06/12 02:04:26;;;;;;;2.95;1.63;;;;;;;;;;5073837;28;20036;-68
2022/06/12 02:06:57;;;;;;;1.80;1.63;;;;;;;;;;5074056;28;20082;-68
2022/06/12 02:09:25;;;;;;;3.33;2.00;;;;;;;;;;5073966;28;20449;-68
2022/06/12 02:14:42;;;;;;;5.85;2.17;;;;;;;;;;5073989;28;20031;-68
2022/06/12 02:17:10;;;;;;;2.47;2.22;;;;;;;;;;5073568;28;20138;-68
2022/06/12 02:19:43;;;;;;;4.25;2.33;;;;;;;;;;5073519;28;20078;-68
2022/06/12 02:22:20;;;;;;;2.75;2.10;;;;;;;;;;5073759;28;20032;-68
2022/06/12 02:24:52;;;;;;;4.35;2.15;;;;;;;;;;5073803;28;20032;-68
2022/06/12 02:27:24;;;;;;;3.45;2.15;;;;;;;;;;5073795;28;20037;-68
2022/06/12 02:29:50;;;;;;;;;;;;;;;;;;5074075;28;20094;-68
2022/06/12 02:32:18;;;;;;;3.63;2.30;;;;;;;;;;5073627;28;19904;-68
2022/06/12 02:34:48;;;;;;;4.80;2.13;;;;;;;;;;5073823;28;20381;-68
2022/06/12 02:37:18;;;;;;;4.65;2.28;;;;;;;;;;5073572;28;20119;-68
2022/06/12 02:39:47;;;;;;;3.72;2.40;;;;;;;;;;5073550;28;20036;-68
2022/06/12 02:42:26;;;;;;;5.65;2.30;;;;;;;;;;5073449;28;20078;-68
2022/06/12 02:44:56;;;;;;;7.53;2.60;;;;;;;;;;5073121;28;20036;-68
2022/06/12 02:47:24;;;;;;;7.68;2.47;;;;;;;;;;5073523;28;20028;-68
2022/06/12 02:49:51;;;;;;;7.63;2.65;;;;;;;;;;5073271;28;20059;-68
2022/06/12 02:52:24;;;;;;;6.50;2.70;;;;;;;;;;5073181;28;20029;-68
2022/06/12 02:54:50;;;;;;;5.57;2.10;;;;;;;;;;5073455;28;20102;-68
2022/06/12 02:57:19;;;;;;;5.03;1.80;;;;;;;;;;5072903;28;20028;-68
2022/06/12 03:00:03;;;;;;;3.50;1.70;;;;;;;;;;5073199;28;20064;-68
2022/06/12 03:02:41;;;;;;;2.53;1.80;;;;;;;;;;5073009;28;20032;-68
2022/06/12 03:05:26;;;;;;;3.83;1.73;;;;;;;;;;5072862;28;20040;-68
2022/06/12 03:08:16;;;;;;;4.82;1.55;;;;;;;;;;5073206;28;20443;-68
2022/06/12 03:10:51;;;;;;;5.53;2.10;;;;;;;;;;5072899;28;20060;-68
2022/06/12 03:13:17;;;;;;;3.67;2.30;;;;;;;;;;5073313;28;20031;-68
2022/06/12 03:16:10;;;;;;;7.18;2.10;;;;;;;;;;5073227;28;20124;-68
2022/06/12 03:18:41;;;;;;;2.83;2.05;;;;;;;;;;5069993;28;20130;-68
2022/06/12 03:21:19;;;;;;;2.90;1.90;;;;;;;;;;5072792;28;20056;-68
2022/06/12 03:23:48;;;;;;;2.20;1.70;;;;;;;;;;5073184;28;20050;-68
2022/06/12 03:26:34;;;;;;;3.45;1.75;;;;;;;;;;5072891;28;20162;-68
2022/06/12 03:29:04;;;;;;;3.63;1.90;;;;;;;;;;5072642;28;20110;-68
2022/06/12 03:31:40;;;;;;;4.93;1.70;;;;;;;;;;5072799;28;20047;-68
2022/06/12 03:34:10;;;;;;;5.32;1.55;;;;;;;;;;5072683;28;20127;-68
2022/06/12 03:36:41;;;;;;;4.57;1.70;;;;;;;;;;5072967;28;20477;-68
2022/06/12 03:39:12;;;;;;;2.38;1.60;;;;;;;;;;5072679;28;20031;-68
2022/06/12 03:41:38;;;;;;;5.60;2.25;;;;;;;;;;5073040;28;20366;-68
2022/06/12 03:44:22;;;;;;;2.67;2.10;;;;;;;;;;5072761;28;20095;-68
2022/06/12 03:46:51;;;;;;;4.85;2.40;;;;;;;;;;5072889;28;20532;-68
2022/06/12 03:49:17;;;;;;;6.18;2.33;;;;;;;;;;5072640;28;20043;-68
2022/06/12 03:51:43;;;;;;;3.28;2.25;;;;;;;;;;5072331;28;20032;-69
2022/06/12 03:54:24;;;;;;;2.67;2.45;;;;;;;;;;5072563;28;20032;-68
2022/06/12 03:59:42;;;;;;;13.18;2.92;;;;;;;;;;5073021;28;20039;-67
2022/06/12 04:02:11;;;;;;;8.18;2.50;;;;;;;;;;5072714;28;20044;-68
2022/06/12 04:04:38;;;;;;;3.65;2.88;;;;;;;;;;5072509;28;20094;-68
2022/06/12 04:07:06;;;;;;;4.72;2.50;;;;;;;;;;5072596;28;20037;-68
2022/06/12 04:09:34;;;;;;;5.07;2.28;;;;;;;;;;5072822;28;20124;-68
2022/06/12 04:12:03;;;;;;;4.68;2.85;;;;;;;;;;5072699;28;20068;-68
2022/06/12 04:14:31;;;;;;;3.75;2.28;;;;;;;;;;5072500;28;20083;-68
2022/06/12 04:17:00;;;;;;;4.75;2.40;;;;;;;;;;5072389;28;20068;-68
2022/06/12 04:19:26;;;;;;;3.35;2.40;;;;;;;;;;5072297;28;20040;-68
2022/06/12 04:21:55;;;;;;;6.53;2.58;;;;;;;;;;5072626;28;20036;-68
2022/06/12 04:24:25;;;;;;;5.57;2.40;;;;;;;;;;5075644;28;20041;-68
2022/06/12 04:26:51;;;;;;;5.55;2.22;;;;;;;;;;5075856;28;20130;-68
2022/06/12 04:29:23;;;;;;;6.03;3.30;;;;;;;;;;5076153;28;20024;-68
2022/06/12 04:31:50;;;;;;;5.38;2.38;;;;;;;;;;5076246;28;20044;-68
2022/06/12 04:34:19;;;;;;;4.28;2.20;;;;;;;;;;5075964;28;20032;-68
2022/06/12 04:36:46;;;;;;;5.03;2.40;;;;;;;;;;5075913;28;20059;-68
2022/06/12 04:39:13;;;;;;;2.88;2.45;;;;;;;;;;5075640;28;20114;-68
2022/06/12 04:41:39;;;;;;;3.47;2.50;;;;;;;;;;5075943;28;20036;-68
2022/06/12 04:44:06;;;;;;;4.07;2.33;;;;;;;;;;5076234;28;20036;-68
2022/06/12 04:46:34;;;;;;;3.47;2.25;;;;;;;;;;5075777;28;20029;-68
2022/06/12 04:49:00;;;;;;;3.22;2.40;;;;;;;;;;5074985;28;20587;-68
2022/06/12 04:51:27;;;;;;;21.65;3.30;;;;;;;;;;5075452;28;20501;-68
2022/06/12 04:53:53;;;;;;;3.63;2.20;;;;;;;;;;5075343;28;20033;-68
2022/06/12 04:56:21;;;;;;;3.83;2.30;;;;;;;;;;5075662;28;20041;-68
2022/06/12 04:58:47;;;;;;;3.17;2.13;;;;;;;;;;5075178;28;20025;-68
2022/06/12 05:01:13;;;;;;;7.10;2.33;;;;;;;;;;5075365;28;20037;-67
2022/06/12 05:03:40;;;;;;;6.75;2.30;;;;;;;;;;5075257;28;20029;-68
2022/06/12 05:06:06;;;;;;;2.85;2.33;;;;;;;;;;5075304;28;20036;-68
2022/06/12 05:08:33;;;;;;;3.67;2.40;;;;;;;;;;5075338;28;20028;-68
2022/06/12 05:10:59;;;;;;;3.55;2.17;;;;;;;;;;5074958;28;20046;-68
2022/06/12 05:13:25;;;;;;;5.95;2.47;;;;;;;;;;5075467;28;20067;-68
2022/06/12 05:15:51;;;;;;;2.90;2.35;;;;;;;;;;5075094;28;20035;-68
2022/06/12 05:18:18;;;;;;;6.40;2.30;;;;;;;;;;5074910;28;20041;-68
2022/06/12 05:20:45;;;;;;;3.08;2.22;;;;;;;;;;5074660;28;20037;-68
2022/06/12 05:23:11;;;;;;;7.75;2.40;;;;;;;;;;5074994;28;20085;-68
2022/06/12 05:25:38;;;;;;;2.55;1.90;;;;;;;;;;5075213;28;20043;-68
2022/06/12 05:28:05;;;;;;;4.03;2.10;;;;;;;;;;5075122;28;20036;-68
2022/06/12 05:30:32;;;;;;;4.15;2.13;;;;;;;;;;5074689;28;20519;-68
2022/06/12 05:32:59;;;;;;;2.13;1.60;;;;;;;;;;5074895;28;20036;-68
2022/06/12 05:35:25;;;;;;;2.28;1.40;;;;;;;;;;5073460;28;20484;-68
2022/06/12 05:37:52;;;;;;;5.60;1.60;;;;;;;;;;5074859;28;20040;-68
2022/06/12 05:40:23;;;;;;;4.13;1.50;;;;;;;;;;5074684;28;20037;-68
2022/06/12 05:42:49;;;;;;;3.00;1.30;;;;;;;;;;5074713;28;20389;-69
2022/06/12 05:45:17;;;;;;;3.95;1.50;;;;;;;;;;5074532;28;20032;-68
2022/06/12 05:47:49;;;;;;;2.45;1.50;;;;;;;;;;5074586;28;20480;-69
2022/06/12 05:50:16;;;;;;;5.40;1.80;;;;;;;;;;5074299;28;20094;-68
2022/06/12 05:52:42;;;;;;;4.55;1.50;;;;;;;;;;5074453;28;20044;-68
2022/06/12 05:55:08;;;;;;;2.13;1.25;;;;;;;;;;5074375;28;20040;-69
2022/06/12 05:57:34;;;;;;;3.40;1.40;;;;;;;;;;5074148;28;20032;-68
2022/06/12 06:00:00;;;;;;;5.43;2.08;;;;;;;;;;5074264;28;20048;-68
2022/06/12 06:02:26;;;;;;;5.03;1.50;;;;;;;;;;5074208;28;20043;-68
2022/06/12 06:04:53;;;;;;;4.10;1.48;;;;;;;;;;5074652;28;20090;-68
2022/06/12 06:07:19;;;;;;;2.22;1.70;;;;;;;;;;5074276;28;20032;-68
2022/06/12 06:09:45;;;;;;;4.05;1.50;;;;;;;;;;5074006;28;20509;-68
2022/06/12 06:12:11;;;;;;;2.50;1.50;;;;;;;;;;5074019;28;20036;-68
2022/06/12 06:14:37;;;;;;;2.45;1.63;;;;;;;;;;5074162;28;20420;-68
2022/06/12 06:17:03;;;;;;;6.53;1.58;;;;;;;;;;5074046;28;20036;-68
2022/06/12 06:19:29;;;;;;;4.68;1.30;;;;;;;;;;5073785;28;20067;-69
2022/06/12 06:21:56;;;;;;;3.83;1.50;;;;;;;;;;5074023;28;20037;-68
2022/06/12 06:24:22;;;;;;;3.75;1.73;;;;;;;;;;5073895;28;20029;-68
2022/06/12 06:26:48;;;;;;;3.53;1.60;;;;;;;;;;5073641;28;20032;-68
2022/06/12 06:29:14;;;;;;;2.75;1.15;;;;;;;;;;5073152;28;20032;-68
2022/06/12 06:31:40;;;;;;;6.68;1.40;;;;;;;;;;5073822;28;20238;-68
2022/06/12 06:34:06;;;;;;;5.82;1.85;;;;;;;;;;5073658;28;20084;-68
2022/06/12 06:36:32;;;;;;;4.50;1.38;;;;;;;;;;5073957;28;20033;-69
2022/06/12 06:38:58;;;;;;;4.80;1.52;;;;;;;;;;5073418;28;20029;-68
2022/06/12 06:41:25;;;;;;;6.53;1.50;;;;;;;;;;5073074;28;20029;-68
2022/06/12 06:46:36;;;;;;;2.95;1.45;;;;;;;;;;5072610;28;20074;-69
2022/06/12 06:49:03;;;;;;;2.33;1.60;;;;;;;;;;5073072;28;20063;-69
2022/06/12 06:51:30;;;;;;;4.32;1.50;;;;;;;;;;5073387;28;20373;-69
2022/06/12 06:53:56;;;;;;;5.68;1.70;;;;;;;;;;5073206;28;20159;-68
2022/06/12 06:56:23;;;;;;;4.55;1.63;;;;;;;;;;5073297;28;20025;-69
2022/06/12 06:58:49;;;;;;;2.83;1.50;;;;;;;;;;5073579;28;20488;-69
2022/06/12 07:01:15;;;;;;;1.90;1.35;;;;;;;;;;5072995;28;20044;-69
2022/06/12 07:03:41;;;;;;;1.60;1.40;;;;;;;;;;5073262;28;20040;-68
2022/06/12 07:06:09;;;;;;;5.65;2.10;;;;;;;;;;5073423;28;20397;-69
2022/06/12 07:08:35;;;;;;;2.63;1.23;;;;;;;;;;5072870;28;20036;-73
2022/06/12 07:11:01;;;;;;;2.10;1.42;;;;;;;;;;5073000;28;20037;-69
2022/06/12 07:13:27;;;;;;;2.45;1.30;;;;;;;;;;5073193;28;20029;-69
2022/06/12 07:15:54;;;;;;;4.15;1.35;;;;;;;;;;5073047;28;20032;-70
2022/06/12 07:18:21;;;;;;;2.58;1.48;;;;;;;;;;5073078;28;20123;-70
2022/06/12 07:20:50;;;;;;;1.92;1.13;;;;;;;;;;5072540;28;20056;-70
2022/06/12 07:23:17;;;;;;;2.83;1.30;;;;;;;;;;5073252;28;20090;-69
2022/06/12 07:25:45;;;;;;;1.63;1.27;;;;;;;;;;5073237;28;20024;-70
2022/06/12 07:28:11;;;;;;;1.70;1.20;;;;;;;;;;5072892;28;20108;-69
2022/06/12 07:30:38;;;;;;;5.13;1.50;;;;;;;;;;5072805;28;20048;-70
2022/06/12 07:33:05;;;;;;;3.05;1.45;;;;;;;;;;5072958;28;20107;-70
2022/06/12 07:35:31;;;;;;;2.15;1.30;;;;;;;;;;5072935;28;20066;-69
2022/06/12 07:37:57;;;;;;;2.13;1.30;;;;;;;;;;5072880;28;20074;-69
2022/06/12 07:40:35;;;;;;;3.45;1.77;;;;;;;;;;5072608;28;20033;-68
2022/06/12 07:43:01;;;;;;;3.25;1.38;;;;;;;;;;5072643;28;20036;-69
2022/06/12 07:45:27;;;;;;;6.82;1.40;;;;;;;;;;5073163;28;20029;-70
2022/06/12 07:47:53;;;;;;;2.75;1.20;;;;;;;;;;5072705;28;20060;-69
2022/06/12 07:50:19;;;;;;;3.20;1.67;;;;;;;;;;5073050;28;20041;-71
2022/06/12 07:52:45;;;;;;;3.50;1.20;;;;;;;;;;5072941;28;20047;-71
2022/06/12 07:55:13;;;;;;;1.98;1.42;;;;;;;;;;5072474;28;20033;-71
2022/06/12 07:57:39;;;;;;;3.78;1.25;;;;;;;;;;5073026;28;20074;-70
2022/06/12 08:00:06;;;;;;;2.35;1.38;;;;;;;;;;5076719;28;20032;-69
2022/06/12 08:02:32;;;;;;;2.22;1.50;;;;;;;;;;5076513;28;20033;-70
2022/06/12 08:04:58;;;;;;;2.42;1.35;;;;;;;;;;5076846;28;20158;-69
2022/06/12 08:07:24;;;;;;;4.45;1.63;;;;;;;;;;5076419;28;20028;-71
2022/06/12 08:09:50;;;;;;;3.65;1.60;;;;;;;;;;5076342;28;20050;-71
2022/06/12 08:12:16;;;;;;;1.80;1.30;;;;;;;;;;5076035;28;20171;-70
2022/06/12 08:14:43;;;;;;;7.45;1.40;;;;;;;;;;5076274;28;20032;-69
2022/06/12 08:17:09;;;;;;;4.40;1.48;;;;;;;;;;5076342;28;20047;-70
2022/06/12 08:22:21;;;;;;;4.78;1.20;;;;;;;;;;5076434;28;20035;-72
2022/06/12 08:24:47;;;;;;;2.22;0.90;;;;;;;;;;5076223;28;20063;-70
2022/06/12 08:27:13;;;;;;;4.65;1.20;;;;;;;;;;5076075;28;20045;-70
2022/06/12 08:29:39;;;;;;;4.00;1.20;;;;;;;;;;5075877;28;20480;-70
2022/06/12 08:32:13;;;;;;;4.07;1.45;;;;;;;;;;5076066;28;20040;-70
2022/06/12 08:34:41;;;;;;;5.25;1.10;;;;;;;;;;5075891;28;20036;-71
2022/06/12 08:37:11;;;;;;;3.63;1.00;;;;;;;;;;5075722;28;20043;-71
2022/06/12 08:39:37;;;;;;;2.72;1.10;;;;;;;;;;5075341;28;20440;-72
2022/06/12 08:42:03;;;;;;;2.92;0.93;;;;;;;;;;5075119;28;20035;-70
2022/06/12 08:44:32;;;;;;;1.35;0.90;;;;;;;;;;5075180;28;20032;-70
2022/06/12 08:47:03;;;;;;;2.17;1.00;;;;;;;;;;5075734;28;20495;-70
2022/06/12 08:49:41;;;;;;;3.13;0.90;;;;;;;;;;5075818;28;20033;-70
2022/06/12 08:52:07;;;;;;;2.63;1.02;;;;;;;;;;5075293;28;20116;-70
2022/06/12 08:54:43;;;;;;;2.20;0.90;;;;;;;;;;5075446;28;20537;-71
2022/06/12 08:57:11;;;;;;;5.25;1.20;;;;;;;;;;5075495;28;20044;-70
2022/06/12 08:59:40;;;;;;;7.65;1.25;;;;;;;;;;5075248;28;20079;-70
2022/06/12 09:02:12;;;;;;;2.08;1.00;;;;;;;;;;5075676;28;20064;-71
2022/06/12 09:04:38;;;;;;;1.70;1.13;;;;;;;;;;5075362;28;20029;-71
2022/06/12 09:07:07;;;;;;;4.00;1.17;;;;;;;;;;5075249;28;20381;-71
2022/06/12 09:09:48;;;;;;;2.50;1.20;;;;;;;;;;5074860;28;20123;-71
2022/06/12 09:12:17;;;;;;;3.58;0.90;;;;;;;;;;5075509;28;20090;-70
2022/06/12 09:14:50;;;;;;;1.95;1.00;;;;;;;;;;5075150;28;20392;-70
2022/06/12 09:17:17;;;;;;;2.40;0.90;;;;;;;;;;5074803;28;20491;-70
2022/06/12 09:19:52;;;;;;;4.13;1.10;;;;;;;;;;5070602;28;20131;-71
2022/06/12 09:22:41;;;;;;;6.90;0.80;;;;;;;;;;5071411;28;20117;-71
2022/06/12 09:25:13;;;;;;;0.93;0.68;;;;;;;;;;5074040;28;20040;-69
2022/06/12 09:27:49;;;;;;;3.95;1.20;;;;;;;;;;5073953;28;20067;-71
2022/06/12 09:30:18;;;;;;;2.30;0.85;;;;;;;;;;5073874;28;20594;-70
2022/06/12 09:32:44;;;;;;;2.92;0.90;;;;;;;;;;5073960;28;20033;-71
2022/06/12 09:35:21;;;;;;;4.88;0.90;;;;;;;;;;5073857;28;20037;-71
2022/06/12 09:38:19;;;;;;;3.67;0.85;;;;;;;;;;5073775;28;20039;-71
2022/06/12 09:40:58;;;;;;;2.63;0.90;;;;;;;;;;5073044;28;20055;-69
2022/06/12 09:43:36;;;;;;;2.28;0.65;;;;;;;;;;5072001;28;20467;-70
2022/06/12 09:46:12;;;;;;;0.70;0.70;;;;;;;;;;5070753;28;20052;-71
2022/06/12 09:48:40;;;;;;;1.15;0.90;;;;;;;;;;5070685;28;20040;-70
2022/06/12 09:51:26;;;;;;;4.00;0.70;;;;;;;;;;5073054;28;20106;-70
2022/06/12 09:53:52;;;;;;;3.05;0.80;;;;;;;;;;5073308;28;20507;-70
2022/06/12 09:56:27;;;;;;;4.65;0.98;;;;;;;;;;5073664;28;20037;-69
2022/06/12 09:59:00;;;;;;;3.03;0.90;;;;;;;;;;5072947;28;20101;-71
2022/06/12 10:01:28;;;;;;;1.60;1.10;;;;;;;;;;5073199;28;20029;-70
2022/06/12 10:04:07;;;;;;;2.30;0.85;;;;;;;;;;5072838;28;20020;-70
2022/06/12 10:06:33;;;;;;;2.40;0.80;;;;;;;;;;5072782;28;20461;-69
2022/06/12 10:09:07;;;;;;;2.88;0.82;;;;;;;;;;5073026;28;20124;-70
2022/06/12 10:11:37;;;;;;;2.03;0.80;;;;;;;;;;5073149;28;20127;-69
2022/06/12 10:14:06;;;;;;;3.97;0.93;;;;;;;;;;5072679;28;20075;-68
2022/06/12 10:19:30;;;;;;;2.53;0.98;;;;;;;;;;5070504;28;20391;-69
2022/06/12 10:21:59;;;;;;;1.25;0.80;;;;;;;;;;5070016;28;20378;-70
2022/06/12 10:24:25;;;;;;;1.92;0.73;;;;;;;;;;5070408;28;20027;-68
2022/06/12 10:26:56;;;;;;;2.05;0.73;;;;;;;;;;5070343;28;20051;-69
2022/06/12 10:29:24;;;;;;;5.28;1.02;;;;;;;;;;5069920;28;20025;-70
2022/06/12 10:32:04;;;;;;;3.13;0.90;;;;;;;;;;5069984;28;20028;-69
2022/06/12 10:34:31;;;;;;;2.08;1.00;;;;;;;;;;5069929;28;20100;-69
2022/06/12 10:37:09;;;;;;;3.83;0.70;;;;;;;;;;5069991;28;20028;-68
2022/06/12 10:39:35;;;;;;;1.55;0.80;;;;;;;;;;5070137;28;20028;-69
2022/06/12 10:42:03;;;;;;;1.50;0.77;;;;;;;;;;5069914;28;20393;-68
2022/06/12 10:44:52;;;;;;;4.82;1.27;;;;;;;;;;5070033;28;20059;-70
2022/06/12 10:47:23;;;;;;;2.22;0.90;;;;;;;;;;5066789;28;20037;-69
2022/06/12 10:50:01;;;;;;;1.20;0.95;;;;;;;;;;5070038;28;20025;-69
2022/06/12 10:52:27;;;;;;;1.77;0.80;;;;;;;;;;5069968;28;20048;-69
2022/06/12 10:54:53;;;;;;;2.03;1.10;;;;;;;;;;5069588;28;20393;-69
2022/06/12 10:57:38;;;;;;;2.42;1.05;;;;;;;;;;5069479;28;20094;-69
2022/06/12 11:00:10;;;;;;;1.85;1.20;;;;;;;;;;5066746;28;20109;-69
2022/06/12 11:02:36;;;;;;;2.22;0.98;;;;;;;;;;5066991;28;20120;-69
2022/06/12 11:05:11;;;;;;;1.50;1.10;;;;;;;;;;5069466;28;20119;-69
2022/06/12 11:07:58;;;;;;;2.38;1.38;;;;;;;;;;5069520;28;20024;-69
2022/06/12 11:10:32;;;;;;;2.97;0.90;;;;;;;;;;5058282;28;20066;-69
2022/06/12 11:13:16;;;;;;;2.08;0.90;;;;;;;;;;5069113;28;20020;-69
2022/06/12 11:15:50;;;;;;;2.13;1.02;;;;;;;;;;5069244;28;20021;-69
2022/06/12 11:18:24;;;;;;;4.15;1.30;;;;;;;;;;5069045;28;20045;-69
2022/06/12 11:20:50;;;;;;;2.78;1.30;;;;;;;;;;5069195;28;20056;-68
2022/06/12 11:23:39;;;;;;;2.13;1.20;;;;;;;;;;5067639;28;20378;-69
2022/06/12 11:26:05;;;;;;;4.07;1.17;;;;;;;;;;5055874;28;20037;-69
2022/06/12 11:28:31;;;;;;;1.70;1.25;;;;;;;;;;5064335;28;20028;-69
2022/06/12 11:31:16;;;;;;;5.15;1.05;;;;;;;;;;5055051;28;20032;-69
2022/06/12 11:33:57;;;;;;;2.90;1.50;;;;;;;;;;5055679;28;20477;-68
2022/06/12 11:36:32;;;;;;;4.53;1.55;;;;;;;;;;5055561;28;20035;-69
2022/06/12 11:39:04;;;;;;;3.35;1.30;;;;;;;;;;5055177;28;20037;-69
2022/06/12 11:41:41;;;;;;;2.35;1.05;;;;;;;;;;5055473;28;20044;-69
2022/06/12 11:44:31;;;;;;;1.58;1.08;;;;;;;;;;5055423;28;20029;-68
2022/06/12 11:46:57;;;;;;;1.77;1.02;;;;;;;;;;5055329;28;20032;-69
2022/06/12 11:49:35;;;;;;;3.08;1.55;;;;;;;;;;5055138;28;20035;-69
2022/06/12 11:52:25;;;;;;;7.35;1.35;;;;;;;;;;5055305;28;20532;-70
2022/06/12 11:54:54;;;;;;;3.22;1.40;;;;;;;;;;5052373;28;20487;-69
2022/06/12 11:57:43;;;;;;;2.80;1.52;;;;;;;;;;5055261;28;20036;-69
2022/06/12 12:00:20;;;;;;;1.95;1.45;;;;;;;;;;5054857;28;20108;-70
2022/06/12 12:02:46;;;;;;;4.18;1.65;;;;;;;;;;5055235;28;20385;-69
2022/06/12 12:05:24;;;;;;;5.07;1.65;;;;;;;;;;5055096;28;20025;-70
2022/06/12 12:08:08;;;;;;;6.70;1.35;;;;;;;;;;5054950;28;20029;-70
2022/06/12 12:10:54;;;;;;;4.50;1.50;;;;;;;;;;5054973;28;20029;-70
2022/06/12 12:13:29;;;;;;;3.53;1.58;;;;;;;;;;5054753;28;20494;-69
2022/06/12 12:15:57;;;;;;;3.05;1.40;;;;;;;;;;5054576;28;20079;-70
2022/06/12 12:18:41;;;;;;;1.55;1.15;;;;;;;;;;5054477;28;20052;-70
2022/06/12 12:21:12;;;;;;;3.40;1.40;;;;;;;;;;5054922;28;20040;-69
2022/06/12 12:23:41;;;;;;;3.03;1.50;;;;;;;;;;5054742;28;20087;-69
2022/06/12 12:26:11;;;;;;;4.68;1.60;;;;;;;;;;5052990;28;20544;-69
2022/06/12 12:28:41;;;;;;;4.03;1.50;;;;;;;;;;5050628;28;20620;-69
2022/06/12 12:31:10;;;;;;;3.90;1.38;;;;;;;;;;5053016;28;20104;-69
2022/06/12 12:33:37;;;;;;;2.10;1.30;;;;;;;;;;5054719;28;20048;-70
2022/06/12 12:41:56;;;;;;;3.63;1.42;;;;;;;;;;5053542;28;20055;-69
2022/06/12 12:44:31;;;;;;;3.20;1.30;;;;;;;;;;5054407;28;20497;-69
2022/06/12 12:46:57;;;;;;;4.50;1.40;;;;;;;;;;5054307;28;20052;-69
2022/06/12 12:49:27;;;;;;;8.93;1.60;;;;;;;;;;5054188;28;20071;-70
2022/06/12 12:52:11;;;;;;;4.40;1.60;;;;;;;;;;5054229;28;20021;-69
2022/06/12 12:54:57;;;;;;;4.50;1.52;;;;;;;;;;5054056;28;20520;-70
2022/06/12 12:57:37;;;;;;;4.07;1.70;;;;;;;;;;5054351;28;20063;-69
2022/06/12 13:00:09;;;;;;;2.95;1.20;;;;;;;;;;5054219;28;20029;-70
2022/06/12 13:02:37;;;;;;;;;;;;;;;;;;5054472;28;20469;-70
2022/06/12 13:05:18;;;;;;;4.35;1.55;;;;;;;;;;5053900;28;19905;-70
2022/06/12 13:07:53;;;;;;;2.67;1.63;;;;;;;;;;5054130;28;20109;-69
2022/06/12 13:10:57;;;;;;;1.73;1.20;;;;;;;;;;5053790;28;20036;-70
2022/06/12 13:13:39;;;;;;;2.25;1.45;;;;;;;;;;5031920;28;20101;-69
2022/06/12 13:16:12;;;;;;;2.85;1.35;;;;;;;;;;5031888;28;20034;-69
2022/06/12 13:18:53;;;;;;;5.10;1.40;;;;;;;;;;5045409;28;20083;-70
2022/06/12 13:21:38;;;;;;;3.65;1.20;;;;;;;;;;5053771;28;20024;-69
2022/06/12 13:24:27;;;;;;;3.63;1.30;;;;;;;;;;5053773;28;20029;-70
2022/06/12 13:26:54;;;;;;;4.80;1.30;;;;;;;;;;5053825;28;20025;-70
2022/06/12 13:29:22;;;;;;;2.88;1.27;;;;;;;;;;5053841;28;20052;-69
2022/06/12 13:32:00;;;;;;;6.82;1.33;;;;;;;;;;5053496;28;20029;-70
2022/06/12 13:34:27;;;;;;;3.63;1.40;;;;;;;;;;5053439;28;20500;-69
2022/06/12 13:36:54;;;;;;;4.63;1.60;;;;;;;;;;5053583;28;20025;-69
2022/06/12 13:39:22;;;;;;;3.70;1.42;;;;;;;;;;5053593;28;20036;-69
2022/06/12 13:41:53;;;;;;;5.80;1.27;;;;;;;;;;5053443;28;20029;-70
2022/06/12 13:44:22;;;;;;;2.55;1.23;;;;;;;;;;5053256;28;20021;-70
2022/06/12 13:46:49;;;;;;;2.80;1.13;;;;;;;;;;5053523;28;20029;-70
2022/06/12 13:49:39;;;;;;;3.90;1.50;;;;;;;;;;5053321;28;20473;-69
2022/06/12 13:52:12;;;;;;;4.95;1.33;;;;;;;;;;5050063;28;20041;-70
2022/06/12 13:54:41;;;;;;;2.33;1.40;;;;;;;;;;5053285;28;20074;-69
2022/06/12 13:57:12;;;;;;;4.18;1.50;;;;;;;;;;5053312;28;20125;-69
2022/06/12 13:59:44;;;;;;;5.28;1.50;;;;;;;;;;5053120;28;20083;-69
2022/06/12 14:02:16;;;;;;;6.68;1.45;;;;;;;;;;5053095;28;20104;-69
2022/06/12 14:04:55;;;;;;;6.13;1.70;;;;;;;;;;5053069;28;20033;-70
2022/06/12 14:07:21;;;;;;;4.25;1.30;;;;;;;;;;5052896;28;20083;-69
2022/06/12 14:09:48;;;;;;;9.45;1.75;;;;;;;;;;5053046;28;20021;-69
2022/06/12 14:12:15;;;;;;;6.90;1.50;;;;;;;;;;5052763;28;20083;-69
2022/06/12 14:14:43;;;;;;;7.53;1.63;;;;;;;;;;5052990;28;20543;-70
2022/06/12 14:17:18;;;;;;;2.22;1.15;;;;;;;;;;5052815;28;20084;-69
2022/06/12 14:19:54;;;;;;;6.07;1.40;;;;;;;;;;5052737;28;20055;-70
2022/06/12 14:22:21;;;;;;;3.30;1.63;;;;;;;;;;5052846;28;20482;-69
2022/06/12 14:24:59;;;;;;;6.35;1.40;;;;;;;;;;5052976;28;20079;-69
2022/06/12 14:27:33;;;;;;;2.97;1.60;;;;;;;;;;5052782;28;20032;-70
2022/06/12 14:29:59;;;;;;;8.40;1.55;;;;;;;;;;5052898;28;20032;-70
2022/06/12 14:32:29;;;;;;;5.40;1.55;;;;;;;;;;5052664;28;20028;-70
2022/06/12 14:35:01;;;;;;;5.57;1.42;;;;;;;;;;5052755;28;20096;-70
2022/06/12 14:37:33;;;;;;;5.30;1.50;;;;;;;;;;5052726;28;20040;-69
2022/06/12 14:40:00;;;;;;;4.38;1.60;;;;;;;;;;5052653;28;20040;-70
2022/06/12 14:42:27;;;;;;;2.40;1.15;;;;;;;;;;5052754;28;20032;-70
2022/06/12 14:44:55;;;;;;;3.42;1.30;;;;;;;;;;5052644;28;20421;-70
2022/06/12 14:47:26;;;;;;;8.65;1.65;;;;;;;;;;5052653;28;20017;-70
2022/06/12 14:49:53;;;;;;;4.50;1.38;;;;;;;;;;5052491;28;20420;-70
2022/06/12 14:52:27;;;;;;;3.00;1.40;;;;;;;;;;5052501;28;20017;-70
2022/06/12 14:54:54;;;;;;;9.15;1.90;;;;;;;;;;5052515;28;20112;-70
2022/06/12 14:57:22;;;;;;;2.22;1.20;;;;;;;;;;5050961;28;20379;-70
2022/06/12 14:59:48;;;;;;;2.95;1.08;;;;;;;;;;5052162;28;20496;-70
2022/06/12 15:02:18;;;;;;;6.35;1.40;;;;;;;;;;5052456;28;20040;-70
2022/06/12 15:04:44;;;;;;;1.83;1.23;;;;;;;;;;5054383;28;20055;-70
2022/06/12 15:07:11;;;;;;;3.97;1.60;;;;;;;;;;5056275;28;20025;-69
2022/06/12 15:09:37;;;;;;;3.47;1.50;;;;;;;;;;5056391;28;20029;-70
2022/06/12 15:12:03;;;;;;;2.53;1.40;;;;;;;;;;5056354;28;20021;-70
2022/06/12 15:14:30;;;;;;;5.97;1.30;;;;;;;;;;5056325;28;20024;-69
2022/06/12 15:16:56;;;;;;;5.43;1.27;;;;;;;;;;5056193;28;20113;-69
2022/06/12 15:19:22;;;;;;;3.20;1.40;;;;;;;;;;5056102;28;20135;-69
2022/06/12 15:21:48;;;;;;;6.05;1.40;;;;;;;;;;5056057;28;20075;-69
2022/06/12 15:24:16;;;;;;;1.45;1.17;;;;;;;;;;5051797;28;20554;-70
2022/06/12 15:29:46;;;;;;;4.78;1.33;;;;;;;;;;5055743;28;20047;-69